createdAt,value
2023-03-17T00:02:07.355Z,56.86
2023-03-17T00:04:35.365Z,56.90
2023-03-17T00:07:06.423Z,57.16
2023-03-17T00:09:34.436Z,57.61
2023-03-17T00:12:02.731Z,56.73
2023-03-17T00:14:31.508Z,57.42
2023-03-17T00:16:59.562Z,57.65
2023-03-17T00:19:32.716Z,56.67
2023-03-17T00:22:01.378Z,58.13
2023-03-17T00:24:31.293Z,58.11
2023-03-17T00:27:00.322Z,57.65
2023-03-17T00:29:28.373Z,57.88
2023-03-17T00:31:58.960Z,57.55
2023-03-17T00:34:27.759Z,57.89
2023-03-17T00:36:56.105Z,57.30
2023-03-17T00:39:25.423Z,56.97
2023-03-17T00:41:55.294Z,57.66
2023-03-17T00:44:24.305Z,57.00
2023-03-17T00:46:52.580Z,57.81
2023-03-17T00:49:24.501Z,56.40
2023-03-17T00:51:53.061Z,57.16
2023-03-17T00:54:22.141Z,57.16
2023-03-17T00:56:53.218Z,55.96
2023-03-17T00:59:28.981Z,55.98
2023-03-17T01:01:58.143Z,56.00
2023-03-17T01:04:26.924Z,56.79
2023-03-17T01:06:55.962Z,55.81
2023-03-17T01:09:29.109Z,56.09
2023-03-17T01:11:57.105Z,55.66
2023-03-17T01:14:26.713Z,55.87
2023-03-17T01:16:55.596Z,55.22
2023-03-17T01:19:23.886Z,54.95
2023-03-17T01:21:52.427Z,55.14
2023-03-17T01:24:21.478Z,55.58
2023-03-17T01:26:49.706Z,54.91
2023-03-17T01:29:18.218Z,54.87
2023-03-17T01:31:48.153Z,54.93
2023-03-17T01:34:16.550Z,54.69
2023-03-17T01:36:44.700Z,54.25
2023-03-17T01:39:13.531Z,55.28
2023-03-17T01:41:41.423Z,54.11
2023-03-17T01:44:17.273Z,54.60
2023-03-17T01:46:47.533Z,54.09
2023-03-17T01:49:21.588Z,53.88
2023-03-17T01:51:58.698Z,55.07
2023-03-17T01:54:32.248Z,54.39
2023-03-17T01:57:04.931Z,53.66
2023-03-17T01:59:38.373Z,53.01
2023-03-17T02:02:12.137Z,54.18
2023-03-17T02:04:40.720Z,53.84
2023-03-17T02:07:10.173Z,54.12
2023-03-17T02:09:41.800Z,53.23
2023-03-17T02:12:11.966Z,53.43
2023-03-17T02:14:40.418Z,53.39
2023-03-17T02:17:09.952Z,53.33
2023-03-17T02:19:38.948Z,52.68
2023-03-17T02:22:08.861Z,52.16
2023-03-17T02:24:40.657Z,52.78
2023-03-17T02:27:13.389Z,52.23
2023-03-17T02:29:42.298Z,53.27
2023-03-17T02:32:11.074Z,53.24
2023-03-17T02:34:39.365Z,51.87
2023-03-17T02:37:09.263Z,51.38
2023-03-17T02:39:37.783Z,51.39
2023-03-17T02:42:07.165Z,52.48
2023-03-17T02:44:35.633Z,52.71
2023-03-17T02:47:04.351Z,52.58
2023-03-17T02:49:34.312Z,51.48
2023-03-17T02:52:02.896Z,52.05
2023-03-17T02:54:32.744Z,52.16
2023-03-17T02:57:01.913Z,51.74
2023-03-17T02:59:29.906Z,51.33
2023-03-17T03:01:57.986Z,52.68
2023-03-17T03:04:26.619Z,52.60
2023-03-17T03:06:55.061Z,52.11
2023-03-17T03:09:24.646Z,51.94
2023-03-17T03:11:54.045Z,51.72
2023-03-17T03:14:22.216Z,51.88
2023-03-17T03:16:50.765Z,51.60
2023-03-17T03:19:18.988Z,51.76
2023-03-17T03:21:47.240Z,51.12
2023-03-17T03:24:15.637Z,50.95
2023-03-17T03:26:43.899Z,51.26
2023-03-17T03:29:13.790Z,51.49
2023-03-17T03:31:41.776Z,51.00
2023-03-17T03:34:10.166Z,51.27
2023-03-17T03:36:38.950Z,50.59
2023-03-17T03:39:08.050Z,50.87
2023-03-17T03:41:36.971Z,51.30
2023-03-17T03:44:05.660Z,50.60
2023-03-17T03:46:35.309Z,50.71
2023-03-17T03:49:03.705Z,50.66
2023-03-17T03:51:32.528Z,50.98
2023-03-17T03:54:01.390Z,50.73
2023-03-17T03:56:29.286Z,50.65
2023-03-17T03:58:58.025Z,50.79
2023-03-17T04:01:25.934Z,50.93
2023-03-17T04:03:55.492Z,51.59
2023-03-17T04:06:24.284Z,51.33
2023-03-17T04:08:52.566Z,51.11
2023-03-17T04:11:21.912Z,51.27
2023-03-17T04:13:50.324Z,51.47
2023-03-17T04:16:18.447Z,50.36
2023-03-17T04:18:46.562Z,51.87
2023-03-17T04:21:18.881Z,50.51
2023-03-17T04:23:47.527Z,50.91
2023-03-17T04:26:17.457Z,50.52
2023-03-17T04:28:46.181Z,50.63
2023-03-17T04:31:15.218Z,51.07
2023-03-17T04:33:43.623Z,50.84
2023-03-17T04:36:21.156Z,50.77
2023-03-17T04:38:49.964Z,51.48
2023-03-17T04:41:18.602Z,51.31
2023-03-17T04:43:47.718Z,50.51
2023-03-17T04:46:16.726Z,51.42
2023-03-17T04:48:44.893Z,51.24
2023-03-17T04:51:13.550Z,50.95
2023-03-17T04:53:43.338Z,51.07
2023-03-17T04:56:12.087Z,51.43
2023-03-17T04:58:40.373Z,51.97
2023-03-17T05:01:09.255Z,51.75
2023-03-17T05:03:38.519Z,52.46
2023-03-17T05:06:07.314Z,52.46
2023-03-17T05:08:35.544Z,52.54
2023-03-17T05:11:05.912Z,52.28
2023-03-17T05:13:35.865Z,52.19
2023-03-17T05:16:04.158Z,51.33
2023-03-17T05:18:32.956Z,52.02
2023-03-17T05:21:01.078Z,52.73
2023-03-17T05:23:30.012Z,52.63
2023-03-17T05:25:59.931Z,53.22
2023-03-17T05:28:30.058Z,53.13
2023-03-17T05:30:58.406Z,52.45
2023-03-17T05:33:28.345Z,52.22
2023-03-17T05:35:57.957Z,52.50
2023-03-17T05:38:26.899Z,52.63
2023-03-17T05:40:55.412Z,52.10
2023-03-17T05:43:23.804Z,51.95
2023-03-17T05:45:53.746Z,51.99
2023-03-17T05:48:23.190Z,51.36
2023-03-17T05:50:52.284Z,51.67
2023-03-17T05:53:20.895Z,51.41
2023-03-17T05:55:49.846Z,51.62
2023-03-17T05:58:18.886Z,50.98
2023-03-17T06:00:47.249Z,50.99
2023-03-17T06:03:17.422Z,50.68
2023-03-17T06:05:46.156Z,50.54
2023-03-17T06:08:15.061Z,50.73
2023-03-17T06:10:44.281Z,49.73
2023-03-17T06:13:13.023Z,49.67
2023-03-17T06:15:42.395Z,50.21
2023-03-17T06:18:11.719Z,50.10
2023-03-17T06:20:43.115Z,49.58
2023-03-17T06:23:11.960Z,49.77
2023-03-17T06:25:43.366Z,49.76
2023-03-17T06:28:13.190Z,48.73
2023-03-17T06:30:41.910Z,48.46
2023-03-17T06:33:22.511Z,48.09
2023-03-17T06:38:46.606Z,43.62
2023-03-17T06:41:14.995Z,41.64
2023-03-17T06:43:43.524Z,39.28
2023-03-17T06:46:12.701Z,36.97
2023-03-17T06:48:40.974Z,35.53
2023-03-17T06:51:11.272Z,36.20
2023-03-17T06:53:42.358Z,36.54
2023-03-17T06:56:23.541Z,37.41
2023-03-17T06:58:56.638Z,36.08
2023-03-17T07:01:25.109Z,34.80
2023-03-17T07:03:54.813Z,35.07
2023-03-17T07:06:25.355Z,33.65
2023-03-17T07:08:53.956Z,31.93
2023-03-17T07:11:24.814Z,29.38
2023-03-17T07:13:54.384Z,29.47
2023-03-17T07:16:22.905Z,30.91
2023-03-17T07:18:51.877Z,31.12
2023-03-17T07:21:20.738Z,31.19
2023-03-17T07:23:55.583Z,32.56
2023-03-17T07:26:25.363Z,35.22
2023-03-17T07:28:54.014Z,34.01
2023-03-17T07:31:23.981Z,36.36
2023-03-17T07:33:52.980Z,38.07
2023-03-17T07:36:21.701Z,37.78
2023-03-17T07:38:52.105Z,39.21
2023-03-17T07:41:22.314Z,39.11
2023-03-17T07:43:50.641Z,37.04
2023-03-17T07:46:19.825Z,34.26
2023-03-17T07:48:48.370Z,32.44
2023-03-17T07:51:19.682Z,33.52
2023-03-17T07:53:48.079Z,31.87
2023-03-17T07:56:18.882Z,30.09
2023-03-17T07:58:47.788Z,31.64
2023-03-17T08:01:16.781Z,30.40
2023-03-17T08:03:45.466Z,30.62
2023-03-17T08:06:14.725Z,29.28
2023-03-17T08:08:44.363Z,28.97
2023-03-17T08:11:12.673Z,28.94
2023-03-17T08:13:45.501Z,28.84
2023-03-17T08:16:15.906Z,27.99
2023-03-17T08:18:47.775Z,28.68
2023-03-17T08:21:16.977Z,27.53
2023-03-17T08:23:46.267Z,28.17
2023-03-17T08:26:16.690Z,27.90
2023-03-17T08:28:46.656Z,26.67
2023-03-17T08:31:17.712Z,26.98
2023-03-17T08:33:49.009Z,27.19
2023-03-17T08:36:19.240Z,27.60
2023-03-17T08:38:48.892Z,27.85
2023-03-17T08:41:20.701Z,25.18
2023-03-17T08:43:50.952Z,24.46
2023-03-17T08:46:22.306Z,24.98
2023-03-17T08:48:52.557Z,23.49
2023-03-17T08:51:24.607Z,24.50
2023-03-17T08:53:54.402Z,23.92
2023-03-17T08:56:24.102Z,25.15
2023-03-17T08:58:54.663Z,24.61
2023-03-17T09:01:25.041Z,24.04
2023-03-17T09:03:55.505Z,25.24
2023-03-17T09:06:27.428Z,24.34
2023-03-17T09:08:56.360Z,25.90
2023-03-17T09:11:27.101Z,26.91
2023-03-17T09:16:49.340Z,27.77
2023-03-17T09:19:21.934Z,29.18
2023-03-17T09:24:21.228Z,29.42
2023-03-17T09:26:53.764Z,29.98
2023-03-17T09:29:28.477Z,29.21
2023-03-17T09:31:58.566Z,29.23
2023-03-17T09:34:35.443Z,26.82
2023-03-17T09:37:05.586Z,27.84
2023-03-17T09:39:37.017Z,28.69
2023-03-17T09:42:19.030Z,29.04
2023-03-17T09:45:08.580Z,29.08
2023-03-17T09:48:07.460Z,29.13
2023-03-17T09:50:46.483Z,29.56
2023-03-17T09:53:23.283Z,29.47
2023-03-17T09:55:57.267Z,28.03
2023-03-17T09:58:35.171Z,28.81
2023-03-17T10:01:06.754Z,30.15
2023-03-17T10:03:39.215Z,29.63
2023-03-17T10:06:31.022Z,29.28
2023-03-17T10:09:04.390Z,29.31
2023-03-17T10:11:45.512Z,29.07
2023-03-17T10:14:28.997Z,28.83
2023-03-17T10:17:03.825Z,28.19
2023-03-17T10:19:36.609Z,28.58
2023-03-17T10:22:14.860Z,27.83
2023-03-17T10:24:49.925Z,26.61
2023-03-17T10:27:20.071Z,27.80
2023-03-17T10:29:48.777Z,28.14
2023-03-17T10:32:18.539Z,27.41
2023-03-17T10:34:50.131Z,27.41
2023-03-17T10:37:20.474Z,28.06
2023-03-17T10:39:51.117Z,28.11
2023-03-17T10:42:25.219Z,27.34
2023-03-17T10:44:56.880Z,27.80
2023-03-17T10:47:33.300Z,28.91
2023-03-17T10:50:06.425Z,28.84
2023-03-17T10:52:40.836Z,29.45
2023-03-17T10:55:14.764Z,29.47
2023-03-17T10:57:53.212Z,30.08
2023-03-17T11:00:23.823Z,30.19
2023-03-17T11:02:58.436Z,29.99
2023-03-17T11:05:29.476Z,29.51
2023-03-17T11:08:10.477Z,28.74
2023-03-17T11:10:42.105Z,29.39
2023-03-17T11:13:10.742Z,29.98
2023-03-17T11:15:44.629Z,29.09
2023-03-17T11:18:21.339Z,29.36
2023-03-17T11:20:55.658Z,29.37
2023-03-17T11:23:39.813Z,29.33
2023-03-17T11:26:24.800Z,29.36
2023-03-17T11:29:01.793Z,30.29
2023-03-17T11:31:36.474Z,29.43
2023-03-17T11:34:09.811Z,29.96
2023-03-17T11:36:55.243Z,28.54
2023-03-17T11:39:28.386Z,28.29
2023-03-17T11:42:10.295Z,29.30
2023-03-17T11:45:04.871Z,29.19
2023-03-17T11:47:43.770Z,28.78
2023-03-17T11:50:28.338Z,28.30
2023-03-17T11:53:20.602Z,28.20
2023-03-17T11:55:57.418Z,28.66
2023-03-17T11:58:34.102Z,28.47
2023-03-17T12:01:09.230Z,28.36
2023-03-17T12:03:43.221Z,27.60
2023-03-17T12:06:20.540Z,28.12
2023-03-17T12:08:53.924Z,27.73
2023-03-17T12:11:28.150Z,28.35
2023-03-17T12:14:01.499Z,28.21
2023-03-17T12:16:35.974Z,28.62
2023-03-17T12:19:13.093Z,28.14
2023-03-17T12:21:50.296Z,28.13
2023-03-17T12:24:24.464Z,28.28
2023-03-17T12:26:59.434Z,28.10
2023-03-17T12:29:41.468Z,27.90
2023-03-17T12:32:15.674Z,28.13
2023-03-17T12:34:51.442Z,28.41
2023-03-17T12:37:22.094Z,27.97
2023-03-17T12:39:59.265Z,26.98
2023-03-17T12:42:38.518Z,27.43
2023-03-17T12:45:33.275Z,27.58
2023-03-17T12:48:27.608Z,27.21
2023-03-17T12:51:44.072Z,26.88
2023-03-17T12:54:21.511Z,26.65
2023-03-17T12:56:51.689Z,27.75
2023-03-17T12:59:22.589Z,27.40
2023-03-17T13:01:59.042Z,27.89
2023-03-17T13:04:32.493Z,28.32
2023-03-17T13:07:07.594Z,28.52
2023-03-17T13:09:49.865Z,28.82
2023-03-17T13:12:59.834Z,29.07
2023-03-17T13:15:55.392Z,28.43
2023-03-17T13:18:40.356Z,29.11
2023-03-17T13:21:14.942Z,28.62
2023-03-17T13:23:45.746Z,29.16
2023-03-17T13:26:21.007Z,28.04
2023-03-17T13:28:52.292Z,28.22
2023-03-17T13:31:38.588Z,28.70
2023-03-17T13:34:18.889Z,27.18
2023-03-17T13:37:02.719Z,27.17
2023-03-17T13:40:01.109Z,26.30
2023-03-17T13:42:44.978Z,26.96
2023-03-17T13:45:35.816Z,27.55
2023-03-17T13:48:32.248Z,25.76
2023-03-17T13:51:21.355Z,25.09
2023-03-17T13:53:54.553Z,25.30
2023-03-17T13:56:31.002Z,25.20
2023-03-17T13:59:07.889Z,25.47
2023-03-17T14:01:42.988Z,25.13
2023-03-17T14:04:22.215Z,26.29
2023-03-17T14:06:54.941Z,26.58
2023-03-17T14:09:33.344Z,26.61
2023-03-17T14:12:07.260Z,26.66
2023-03-17T14:14:47.514Z,27.22
2023-03-17T14:17:20.895Z,26.54
2023-03-17T14:20:04.462Z,26.72
2023-03-17T14:22:33.235Z,26.70
2023-03-17T14:25:03.820Z,26.32
2023-03-17T14:27:35.934Z,26.87
2023-03-17T14:30:17.827Z,27.44
2023-03-17T14:32:50.002Z,27.11
2023-03-17T14:35:18.630Z,27.79
2023-03-17T14:37:46.948Z,28.07
2023-03-17T14:40:23.940Z,28.32
2023-03-17T14:42:52.229Z,28.24
2023-03-17T14:45:33.631Z,28.64
2023-03-17T14:48:13.847Z,27.63
2023-03-17T14:50:52.797Z,28.07
2023-03-17T14:53:24.157Z,28.28
2023-03-17T14:55:54.455Z,28.34
2023-03-17T14:58:26.573Z,28.56
2023-03-17T15:00:59.911Z,28.50
2023-03-17T15:03:31.691Z,29.18
2023-03-17T15:06:22.968Z,28.79
2023-03-17T15:08:52.666Z,28.57
2023-03-17T15:11:27.255Z,28.13
2023-03-17T15:13:58.152Z,27.30
2023-03-17T15:16:31.186Z,27.72
2023-03-17T15:19:07.382Z,27.37
2023-03-17T15:21:40.659Z,27.96
2023-03-17T15:24:26.056Z,28.19
2023-03-17T15:27:01.345Z,27.85
2023-03-17T15:29:30.258Z,27.95
2023-03-17T15:32:08.699Z,28.13
2023-03-17T15:34:36.853Z,28.16
2023-03-17T15:37:05.026Z,27.14
2023-03-17T15:39:34.018Z,26.99
2023-03-17T15:42:02.090Z,27.41
2023-03-17T15:44:30.070Z,27.86
2023-03-17T15:46:58.683Z,27.16
2023-03-17T15:49:28.376Z,28.70
2023-03-17T15:51:56.500Z,28.90
2023-03-17T15:54:25.105Z,28.43
2023-03-17T15:56:53.382Z,28.30
2023-03-17T15:59:24.407Z,28.19
2023-03-17T16:01:55.498Z,28.65
2023-03-17T16:04:24.068Z,28.55
2023-03-17T16:06:53.572Z,28.57
2023-03-17T16:09:22.354Z,29.08
2023-03-17T16:11:52.259Z,29.42
2023-03-17T16:14:20.540Z,29.69
2023-03-17T16:16:49.254Z,30.32
2023-03-17T16:19:21.415Z,29.41
2023-03-17T16:21:50.920Z,30.98
2023-03-17T16:24:25.526Z,31.04
2023-03-17T16:26:54.963Z,31.37
2023-03-17T16:29:23.545Z,31.31
2023-03-17T16:31:52.477Z,32.15
2023-03-17T16:34:23.167Z,32.92
2023-03-17T16:36:51.972Z,33.17
2023-03-17T16:39:23.943Z,33.51
2023-03-17T16:41:53.512Z,33.56
2023-03-17T16:44:23.567Z,34.21
2023-03-17T16:46:52.204Z,34.58
2023-03-17T16:49:23.101Z,33.78
2023-03-17T16:51:51.412Z,34.56
2023-03-17T16:54:20.173Z,34.36
2023-03-17T16:56:49.941Z,35.08
2023-03-17T16:59:22.513Z,35.10
2023-03-17T17:01:50.969Z,36.23
2023-03-17T17:04:19.069Z,36.24
2023-03-17T17:06:47.741Z,37.08
2023-03-17T17:09:16.036Z,37.59
2023-03-17T17:11:44.718Z,37.94
2023-03-17T17:14:14.768Z,37.88
2023-03-17T17:16:43.176Z,38.45
2023-03-17T17:19:18.067Z,38.89
2023-03-17T17:21:46.531Z,39.37
2023-03-17T17:24:15.585Z,40.16
2023-03-17T17:26:44.315Z,40.17
2023-03-17T17:29:13.833Z,40.87
2023-03-17T17:31:42.139Z,40.79
2023-03-17T17:34:11.070Z,40.63
2023-03-17T17:36:39.376Z,41.38
2023-03-17T17:39:07.656Z,41.25
2023-03-17T17:41:36.485Z,41.00
2023-03-17T17:44:05.677Z,42.03
2023-03-17T17:46:35.523Z,41.31
2023-03-17T17:49:04.121Z,42.02
2023-03-17T17:51:32.871Z,42.05
2023-03-17T17:54:00.974Z,42.90
2023-03-17T17:56:31.377Z,42.99
2023-03-17T17:58:59.453Z,43.79
2023-03-17T18:01:27.869Z,43.94
2023-03-17T18:03:57.900Z,43.81
2023-03-17T18:06:26.228Z,44.23
2023-03-17T18:08:55.382Z,44.32
2023-03-17T18:11:23.816Z,44.33
2023-03-17T18:13:52.674Z,44.66
2023-03-17T18:16:21.032Z,44.45
2023-03-17T18:18:49.504Z,44.34
2023-03-17T18:21:19.277Z,44.87
2023-03-17T18:23:49.203Z,44.74
2023-03-17T18:26:18.710Z,44.09
2023-03-17T18:28:47.854Z,44.83
2023-03-17T18:31:20.820Z,44.31
2023-03-17T18:33:52.465Z,44.45
2023-03-17T18:36:23.163Z,44.95
2023-03-17T18:38:52.130Z,44.55
2023-03-17T18:41:20.344Z,45.03
2023-03-17T18:43:49.373Z,44.02
2023-03-17T18:46:17.624Z,44.71
2023-03-17T18:48:45.955Z,45.30
2023-03-17T18:51:14.737Z,45.11
2023-03-17T18:53:44.265Z,45.08
2023-03-17T18:56:12.672Z,45.06
2023-03-17T18:58:41.426Z,45.03
2023-03-17T19:01:09.502Z,44.87
2023-03-17T19:03:38.346Z,45.35
2023-03-17T19:06:11.785Z,44.88
2023-03-17T19:08:40.611Z,44.95
2023-03-17T19:11:12.085Z,45.90
2023-03-17T19:13:40.709Z,45.96
2023-03-17T19:16:10.526Z,45.75
2023-03-17T19:18:42.040Z,46.04
2023-03-17T19:21:11.364Z,46.40
2023-03-17T19:23:39.357Z,45.85
2023-03-17T19:26:10.763Z,46.23
2023-03-17T19:28:38.877Z,46.24
2023-03-17T19:31:07.468Z,46.57
2023-03-17T19:33:36.077Z,46.14
2023-03-17T19:36:08.691Z,46.21
2023-03-17T19:38:37.611Z,45.88
2023-03-17T19:41:06.783Z,45.78
2023-03-17T19:43:41.244Z,45.57
2023-03-17T19:46:11.420Z,45.96
2023-03-17T19:48:40.776Z,46.17
2023-03-17T19:51:09.458Z,46.00
2023-03-17T19:53:39.051Z,45.41
2023-03-17T19:56:08.222Z,46.19
2023-03-17T19:58:38.422Z,46.44
2023-03-17T20:01:09.067Z,46.85
2023-03-17T20:03:39.360Z,46.64
2023-03-17T20:06:07.616Z,46.80
2023-03-17T20:08:36.824Z,46.91
2023-03-17T20:11:06.042Z,47.51
2023-03-17T20:13:35.491Z,47.24
2023-03-17T20:16:06.389Z,47.67
2023-03-17T20:18:36.045Z,47.08
2023-03-17T20:21:08.198Z,47.53
2023-03-17T20:23:37.842Z,47.38
2023-03-17T20:26:07.392Z,47.40
2023-03-17T20:28:36.286Z,47.38
2023-03-17T20:31:08.068Z,47.54
2023-03-17T20:33:37.577Z,47.70
2023-03-17T20:36:06.299Z,47.47
2023-03-17T20:38:37.444Z,48.01
2023-03-17T20:41:07.626Z,47.60
2023-03-17T20:43:37.922Z,47.65
2023-03-17T20:46:09.357Z,47.90
2023-03-17T20:48:38.503Z,47.99
2023-03-17T20:51:07.109Z,48.28
2023-03-17T20:53:36.285Z,48.32
2023-03-17T20:56:05.370Z,48.07
2023-03-17T20:58:34.022Z,48.72
2023-03-17T21:01:02.845Z,48.31
2023-03-17T21:03:32.863Z,48.68
2023-03-17T21:06:01.495Z,48.13
2023-03-17T21:08:29.751Z,48.05
2023-03-17T21:10:59.025Z,47.95
2023-03-17T21:13:27.656Z,47.73
2023-03-17T21:15:56.848Z,47.53
2023-03-17T21:18:25.497Z,47.56
2023-03-17T21:20:56.067Z,47.56
2023-03-17T21:23:24.825Z,47.43
2023-03-17T21:25:56.977Z,47.32
2023-03-17T21:28:25.366Z,47.61
2023-03-17T21:30:53.781Z,47.07
2023-03-17T21:33:22.587Z,47.16
2023-03-17T21:35:51.082Z,47.04
2023-03-17T21:38:21.554Z,47.28
2023-03-17T21:40:50.353Z,47.83
2023-03-17T21:43:18.930Z,47.89
2023-03-17T21:45:47.084Z,48.21
2023-03-17T21:48:15.729Z,47.24
2023-03-17T21:50:44.687Z,47.02
2023-03-17T21:53:16.310Z,47.15
2023-03-17T21:55:45.801Z,47.04
2023-03-17T21:58:13.884Z,46.91
2023-03-17T22:00:45.678Z,47.39
2023-03-17T22:03:14.273Z,47.15
2023-03-17T22:05:42.849Z,47.59
2023-03-17T22:08:11.159Z,48.14
2023-03-17T22:10:40.413Z,47.10
2023-03-17T22:13:10.493Z,47.75
2023-03-17T22:15:38.900Z,48.79
2023-03-17T22:18:07.182Z,48.15
2023-03-17T22:20:35.836Z,48.95
2023-03-17T22:23:04.579Z,49.03
2023-03-17T22:25:32.859Z,49.51
2023-03-17T22:28:01.945Z,49.48
2023-03-17T22:30:31.853Z,49.88
2023-03-17T22:33:00.201Z,49.78
2023-03-17T22:35:28.872Z,49.55
2023-03-17T22:37:57.345Z,49.69
2023-03-17T22:40:25.421Z,49.44
2023-03-17T22:42:57.714Z,50.35
2023-03-17T22:45:26.918Z,50.30
2023-03-17T22:47:57.035Z,50.09
2023-03-17T22:50:25.485Z,50.56
2023-03-17T22:52:53.667Z,50.53
2023-03-17T22:55:22.164Z,50.75
2023-03-17T22:57:50.554Z,50.43
2023-03-17T23:00:19.714Z,50.66
2023-03-17T23:02:48.666Z,50.23
2023-03-17T23:05:18.432Z,50.24
2023-03-17T23:07:53.521Z,50.66
2023-03-17T23:10:25.296Z,50.68
2023-03-17T23:12:54.133Z,50.86
2023-03-17T23:15:22.836Z,51.46
2023-03-17T23:17:52.483Z,51.67
2023-03-17T23:20:25.395Z,52.07
2023-03-17T23:22:54.110Z,51.39
2023-03-17T23:25:23.290Z,51.30
2023-03-17T23:27:52.466Z,51.58
2023-03-17T23:30:21.728Z,50.80
2023-03-17T23:32:50.361Z,51.27
2023-03-17T23:35:19.556Z,50.94
2023-03-17T23:37:50.428Z,50.90
2023-03-17T23:40:19.030Z,50.65
2023-03-17T23:42:49.027Z,51.10
2023-03-17T23:45:18.555Z,50.81
2023-03-17T23:47:47.905Z,51.90
2023-03-17T23:50:16.948Z,51.43
2023-03-17T23:52:45.810Z,50.90
2023-03-17T23:55:16.118Z,50.59
2023-03-17T23:57:44.570Z,50.64
